In Rescue
 
Open Full Screen Window  High Contrast Mode
Wind Gusting 00 knots
08
February 02, 2023 7:30 PM CST
Weather Information
Wind Direction
  300 °
Wind Speed
  08 kt (9 mph)
Wind Gust
  00 kt (0 mph)
Altimeter
30.54 in
Visibility
10 SM
Temperature
-21° C
-5° F
Dewpoint
-27° C
-16° F
Humidity
59%
1hr Rain Fall
00.00 in.
24hr Rain Fall
00.00 in.
Sky Condition
Broken @ 4,500 ft
Broken @ 3,700 ft
Few @ 2,900 ft
VFR

METAR KCFE 030130Z AUTO 30008KT 10SM FEW029 BKN037 BKN045 M21/M27 A3054 RMK AO2

FAA Disclaimer: The data displayed is for advisory purposes only and is not to be used for flight planning or operations.